Aérodrome :







RETROUVEZ-NOUS SUR...

 
LOGIN :

S'inscrire | Disclaimer

   EN    FR    IT 

 









Légende :    VFR   VFR Marginal   IFR   IFR Intensif   IFR Très Intensif
Visi : 
Plafond : 
>= 8 km
>= 3000ft
5 à 8 km
1000 à 3000 ft
1500m à 5 km
500 à 1000 ft
800 à 1500m
200 à 500 ft
< 800m
< 200 ft
Symboles :   Orages  Brouillard  Fortes neiges  Fortes précipitations  Vent > 20 kt






- Altitude de l'aérodrome : 1709 ft
- Code IATA : YKL


CYKL - Schefferville

DERNIER METAR :
  • 190100Z AUTO 30005KT 9SM FEW050 M25/M28 A2985 RMK SLP176

METARs EXPIRÉS :
  • 190000Z AUTO 31005KT 250V030 9SM OVC046 M24/M27 A2984 RMK SLP176
  • 182300Z AUTO 28013G22KT 9SM OVC046 M24/M28 A2988 RMK SLP188
  • 182200Z AUTO 32008KT 9SM OVC044 M24/M28 A2989 RMK SLP192

TAF TAF CYKL
Valide du 18 à 20h jusqu'au 19 à 08h UTC


181938Z 1820/1908 29010G20KT P6SM OVC050
TEMPO 1820/1908 5SM -SN RMK FCST BASED ON AUTO OBS. NXT FCST BY 190200Z



MET'MAP, la Météo Aéronautique d'un coup d'oeil ! - Copyright ORBIFLY Décembre 2007 - Disclaimer

ORBIFLY MET'MAP TEAM :

Programmation & Développement : Alexandra Zaïnal
Sur une idée originale de : Baudouin d'Aumeries
Assistance à la programmation : Marc-Olivier Méhu
Soutien technique & logistique : Manuel Goepfert

Contact : metmap@orbifly.com




SOURCES & CREDITS :

   NOAA